Time;durP1;ratioP1;P1;durP2;ratioP2;P2;SDS_P1;SDS_P2;PMS_P1;PMS_P2;Temp;Humidity;BMP_temperature;BMP_pressure;BME280_temperature;BME280_humidity;BME280_pressure;Samples;Min_cycle;Max_cycle;Signal;HPM_P1;HPM_P2
2022/06/06 00:00:29;;;;;;;4.03;3.10;;;;;;;;;;5039704;28;20272;-75
2022/06/06 00:02:57;;;;;;;6.17;3.17;;;;;;;;;;5038946;28;20203;-75
2022/06/06 00:05:24;;;;;;;4.47;3.50;;;;;;;;;;5037050;28;20608;-75
2022/06/06 00:07:53;;;;;;;8.67;3.80;;;;;;;;;;5039318;28;20637;-74
2022/06/06 00:10:21;;;;;;;5.97;3.67;;;;;;;;;;5036744;28;20218;-75
2022/06/06 00:12:51;;;;;;;8.97;3.50;;;;;;;;;;5037480;28;20674;-76
2022/06/06 00:15:18;;;;;;;5.40;3.43;;;;;;;;;;5037937;28;20724;-76
2022/06/06 00:17:46;;;;;;;4.90;3.70;;;;;;;;;;5037552;28;20214;-76
2022/06/06 00:20:13;;;;;;;5.23;3.80;;;;;;;;;;5038535;28;20721;-76
2022/06/06 00:22:40;;;;;;;5.93;3.47;;;;;;;;;;5038269;28;20659;-74
2022/06/06 00:25:13;;;;;;;5.87;3.70;;;;;;;;;;5038886;28;20249;-75
2022/06/06 00:27:40;;;;;;;8.47;3.60;;;;;;;;;;5038487;28;20260;-75
2022/06/06 00:30:08;;;;;;;4.97;3.60;;;;;;;;;;5038154;28;20681;-75
2022/06/06 00:35:25;;;;;;;5.17;3.37;;;;;;;;;;5034869;28;20738;-75
2022/06/06 00:37:52;;;;;;;6.87;4.00;;;;;;;;;;5037227;28;20211;-75
2022/06/06 00:40:26;;;;;;;5.03;3.60;;;;;;;;;;5036585;28;20202;-75
2022/06/06 00:42:55;;;;;;;5.13;3.43;;;;;;;;;;5036856;28;20304;-76
2022/06/06 00:45:38;;;;;;;7.67;4.03;;;;;;;;;;5038436;28;20219;-75
2022/06/06 00:48:14;;;;;;;8.97;4.40;;;;;;;;;;5036467;28;20199;-75
2022/06/06 00:50:51;;;;;;;5.47;3.90;;;;;;;;;;5035528;28;21784;-75
2022/06/06 00:53:21;;;;;;;5.70;3.73;;;;;;;;;;5036663;28;20206;-76
2022/06/06 00:55:52;;;;;;;6.97;4.07;;;;;;;;;;5034183;28;20226;-75
2022/06/06 00:58:21;;;;;;;6.57;4.17;;;;;;;;;;5035511;28;20253;-75
2022/06/06 01:00:50;;;;;;;5.47;3.60;;;;;;;;;;5037593;28;20203;-75
2022/06/06 01:03:18;;;;;;;5.43;4.10;;;;;;;;;;5039346;28;20211;-76
2022/06/06 01:05:52;;;;;;;7.00;3.83;;;;;;;;;;5037185;28;20238;-75
2022/06/06 01:08:36;;;;;;;7.17;3.80;;;;;;;;;;5038126;28;20199;-76
2022/06/06 01:11:05;;;;;;;5.40;3.73;;;;;;;;;;5037783;28;20261;-77
2022/06/06 01:13:33;;;;;;;7.70;4.07;;;;;;;;;;5038692;28;20298;-74
2022/06/06 01:16:06;;;;;;;10.07;4.00;;;;;;;;;;5036717;28;20258;-77
2022/06/06 01:18:39;;;;;;;7.17;3.90;;;;;;;;;;5038260;28;20222;-75
2022/06/06 01:21:25;;;;;;;8.73;4.57;;;;;;;;;;5037599;28;20234;-77
2022/06/06 01:24:07;;;;;;;7.97;4.60;;;;;;;;;;5037230;28;20298;-76
2022/06/06 01:26:49;;;;;;;7.50;4.50;;;;;;;;;;5037393;28;20294;-77
2022/06/06 01:29:20;;;;;;;7.70;5.30;;;;;;;;;;5037635;28;20285;-75
2022/06/06 01:31:49;;;;;;;8.83;4.97;;;;;;;;;;5038766;28;20294;-73
2022/06/06 01:34:22;;;;;;;7.23;4.57;;;;;;;;;;5037924;28;20473;-76
2022/06/06 01:36:50;;;;;;;7.63;4.70;;;;;;;;;;5036490;28;20353;-75
2022/06/06 01:39:18;;;;;;;8.13;5.00;;;;;;;;;;5038760;28;20665;-74
2022/06/06 01:41:50;;;;;;;10.67;5.50;;;;;;;;;;5036435;28;20205;-77
2022/06/06 01:44:21;;;;;;;9.43;4.90;;;;;;;;;;5036535;28;20293;-76
2022/06/06 01:46:49;;;;;;;6.67;4.37;;;;;;;;;;5035092;28;20289;-77
2022/06/06 01:49:17;;;;;;;7.00;4.60;;;;;;;;;;5038382;28;20210;-77
2022/06/06 01:51:44;;;;;;;9.33;4.87;;;;;;;;;;5037344;28;20262;-76
2022/06/06 01:54:17;;;;;;;8.00;4.90;;;;;;;;;;5036367;28;20310;-77
2022/06/06 01:56:45;;;;;;;7.90;5.00;;;;;;;;;;5036295;28;20211;-73
2022/06/06 01:59:12;;;;;;;7.37;4.87;;;;;;;;;;5036997;28;20211;-76
2022/06/06 02:01:41;;;;;;;9.07;4.57;;;;;;;;;;5038705;28;20685;-77
2022/06/06 02:04:10;;;;;;;6.43;4.40;;;;;;;;;;5036585;28;20988;-74
2022/06/06 02:06:39;;;;;;;7.43;4.20;;;;;;;;;;5035116;28;20273;-77
2022/06/06 02:09:06;;;;;;;9.53;4.70;;;;;;;;;;5036677;28;20321;-76
2022/06/06 02:11:34;;;;;;;9.47;5.00;;;;;;;;;;5038858;28;20297;-78
2022/06/06 02:14:01;;;;;;;8.00;4.87;;;;;;;;;;5039129;28;20297;-77
2022/06/06 02:16:28;;;;;;;7.90;4.80;;;;;;;;;;5038857;28;20223;-78
2022/06/06 02:18:57;;;;;;;9.07;4.70;;;;;;;;;;5037000;28;20242;-76
2022/06/06 02:21:24;;;;;;;8.93;4.40;;;;;;;;;;5037627;28;20321;-78
2022/06/06 02:23:51;;;;;;;8.00;5.07;;;;;;;;;;5036243;28;20550;-75
2022/06/06 02:26:18;;;;;;;12.37;5.17;;;;;;;;;;5036900;28;20249;-75
2022/06/06 02:28:46;;;;;;;8.87;5.13;;;;;;;;;;5035630;28;20210;-77
2022/06/06 02:31:13;;;;;;;11.37;5.63;;;;;;;;;;5036311;28;21818;-74
2022/06/06 02:33:40;;;;;;;9.30;4.70;;;;;;;;;;5034870;28;20354;-75
2022/06/06 02:36:09;;;;;;;10.03;5.13;;;;;;;;;;5035526;28;20229;-75
2022/06/06 02:38:36;;;;;;;10.67;5.43;;;;;;;;;;5036183;28;20220;-74
2022/06/06 02:41:08;;;;;;;10.37;5.63;;;;;;;;;;5035638;28;20266;-75
2022/06/06 02:43:37;;;;;;;11.30;5.53;;;;;;;;;;5036616;28;20199;-75
2022/06/06 02:46:05;;;;;;;9.33;5.47;;;;;;;;;;5035933;28;20288;-76
2022/06/06 02:48:32;;;;;;;11.67;6.30;;;;;;;;;;5036227;28;20280;-75
2022/06/06 02:50:59;;;;;;;13.43;5.60;;;;;;;;;;5037300;28;20342;-77
2022/06/06 02:53:28;;;;;;;12.63;5.53;;;;;;;;;;5036941;28;20211;-77
2022/06/06 02:55:56;;;;;;;13.33;6.00;;;;;;;;;;5035465;28;20227;-74
2022/06/06 02:58:23;;;;;;;11.03;5.57;;;;;;;;;;5035483;28;20322;-76
2022/06/06 03:00:51;;;;;;;9.50;5.97;;;;;;;;;;5036231;28;20325;-75
2022/06/06 03:03:18;;;;;;;9.73;5.60;;;;;;;;;;5037592;28;20257;-74
2022/06/06 03:06:02;;;;;;;15.23;5.67;;;;;;;;;;5036360;28;20226;-74
2022/06/06 03:08:37;;;;;;;12.27;5.97;;;;;;;;;;5037079;28;20226;-77
2022/06/06 03:11:08;;;;;;;10.37;5.77;;;;;;;;;;5075999;22;20222;-81
2022/06/06 03:13:40;;;;;;;10.33;5.77;;;;;;;;;;5065181;28;20780;-80
2022/06/06 03:21:52;;;;;;;10.40;5.30;;;;;;;;;;5069349;28;20259;-81
2022/06/06 03:24:31;;;;;;;9.83;5.47;;;;;;;;;;5069181;28;20783;-79
2022/06/06 03:27:06;;;;;;;9.90;4.90;;;;;;;;;;5072212;28;20210;-79
2022/06/06 03:29:40;;;;;;;12.13;5.43;;;;;;;;;;5068404;28;20246;-80
2022/06/06 03:32:11;;;;;;;8.70;5.37;;;;;;;;;;5064742;28;20908;-81
2022/06/06 03:34:43;;;;;;;11.07;5.60;;;;;;;;;;5064767;28;21434;-79
2022/06/06 03:37:15;;;;;;;12.60;5.33;;;;;;;;;;5062813;28;20226;-82
2022/06/06 03:39:47;;;;;;;9.37;5.47;;;;;;;;;;5063613;28;20978;-80
2022/06/06 03:42:19;;;;;;;10.73;5.03;;;;;;;;;;5062823;28;20320;-80
2022/06/06 03:44:51;;;;;;;11.27;5.90;;;;;;;;;;5066757;28;20278;-82
2022/06/06 03:47:22;;;;;;;9.80;5.40;;;;;;;;;;5061519;28;21940;-83
2022/06/06 03:49:56;;;;;;;8.20;5.17;;;;;;;;;;5063069;28;20226;-81
2022/06/06 03:52:27;;;;;;;9.87;5.57;;;;;;;;;;5064169;28;20356;-81
2022/06/06 03:55:00;;;;;;;11.40;5.50;;;;;;;;;;5061706;28;20210;-79
2022/06/06 03:57:28;;;;;;;9.17;5.23;;;;;;;;;;5061724;28;20790;-82
2022/06/06 03:59:56;;;;;;;9.00;5.23;;;;;;;;;;5060423;28;20233;-79
2022/06/06 04:02:25;;;;;;;9.43;4.83;;;;;;;;;;5065791;28;20214;-83
2022/06/06 04:04:54;;;;;;;7.07;4.80;;;;;;;;;;5063272;28;20206;-80
2022/06/06 04:07:21;;;;;;;12.83;5.03;;;;;;;;;;5061783;28;20206;-80
2022/06/06 04:09:48;;;;;;;9.10;4.27;;;;;;;;;;5062690;28;20261;-82
2022/06/06 04:12:30;;;;;;;9.43;4.30;;;;;;;;;;5058848;28;20230;-82
2022/06/06 04:15:01;;;;;;;6.03;4.30;;;;;;;;;;5063260;28;20271;-81
2022/06/06 04:17:35;;;;;;;9.07;4.50;;;;;;;;;;5065422;28;20246;-79
2022/06/06 04:20:07;;;;;;;7.83;4.57;;;;;;;;;;5067964;28;20365;-81
2022/06/06 04:22:43;;;;;;;8.17;4.43;;;;;;;;;;5073991;28;20312;-79
2022/06/06 04:25:16;;;;;;;8.43;4.13;;;;;;;;;;5086736;28;20205;-80
2022/06/06 04:27:55;;;;;;;11.23;5.03;;;;;;;;;;5084960;28;20198;-82
2022/06/06 04:30:27;;;;;;;8.20;4.60;;;;;;;;;;5060994;28;20222;-80
2022/06/06 04:32:58;;;;;;;6.23;3.80;;;;;;;;;;5065402;28;20295;-81
2022/06/06 04:35:28;;;;;;;8.67;4.30;;;;;;;;;;5060190;28;20234;-81
2022/06/06 04:38:01;;;;;;;8.13;4.27;;;;;;;;;;5062108;28;20221;-81
2022/06/06 04:40:36;;;;;;;7.30;4.00;;;;;;;;;;5060265;28;20236;-81
2022/06/06 04:43:08;;;;;;;8.40;4.63;;;;;;;;;;5063212;28;20202;-80
2022/06/06 04:45:37;;;;;;;10.43;4.77;;;;;;;;;;5062415;28;20301;-79
2022/06/06 04:48:05;;;;;;;7.13;4.17;;;;;;;;;;5063411;28;20286;-80
2022/06/06 04:50:33;;;;;;;8.97;4.27;;;;;;;;;;5062527;28;20649;-80
2022/06/06 04:53:02;;;;;;;11.03;4.90;;;;;;;;;;5064492;28;20209;-81
2022/06/06 04:55:32;;;;;;;7.93;4.33;;;;;;;;;;5062919;28;20205;-81
2022/06/06 04:58:02;;;;;;;8.97;4.93;;;;;;;;;;5063671;28;20250;-82
2022/06/06 05:00:33;;;;;;;7.87;4.60;;;;;;;;;;5064218;28;20309;-80
2022/06/06 05:03:00;;;;;;;8.70;4.80;;;;;;;;;;5062437;28;20627;-79
2022/06/06 05:05:31;;;;;;;8.33;4.80;;;;;;;;;;5065515;28;20662;-82
2022/06/06 05:08:04;;;;;;;11.20;4.90;;;;;;;;;;5062653;28;20673;-80
2022/06/06 05:10:52;;;;;;;7.73;4.87;;;;;;;;;;5064396;28;20236;-84
2022/06/06 05:13:41;;;;;;;8.10;4.17;;;;;;;;;;5059834;28;20194;-79
2022/06/06 05:16:20;;;;;;;7.60;4.93;;;;;;;;;;5062246;28;21119;-79
2022/06/06 05:18:54;;;;;;;8.43;4.70;;;;;;;;;;5064493;28;20229;-80
2022/06/06 05:21:26;;;;;;;7.00;4.53;;;;;;;;;;5061247;28;20264;-81
2022/06/06 05:23:58;;;;;;;13.63;4.27;;;;;;;;;;5065946;28;20236;-80
2022/06/06 05:26:33;;;;;;;6.30;3.50;;;;;;;;;;5058646;28;20209;-81
2022/06/06 05:29:19;;;;;;;5.17;3.00;;;;;;;;;;5058786;28;20212;-82
2022/06/06 05:32:03;;;;;;;7.87;3.40;;;;;;;;;;5061892;28;20285;-80
2022/06/06 05:34:33;;;;;;;5.70;3.30;;;;;;;;;;5059404;28;20206;-79
2022/06/06 05:37:15;;;;;;;5.23;3.40;;;;;;;;;;5061463;28;20206;-81
2022/06/06 05:39:50;;;;;;;6.47;2.97;;;;;;;;;;5059079;28;20226;-80
2022/06/06 05:42:26;;;;;;;6.03;3.43;;;;;;;;;;5064949;28;20277;-80
2022/06/06 05:44:58;;;;;;;7.40;3.03;;;;;;;;;;5062339;28;20254;-80
2022/06/06 05:47:32;;;;;;;4.20;2.70;;;;;;;;;;5062363;28;20212;-80
2022/06/06 05:50:08;;;;;;;5.37;2.83;;;;;;;;;;5059682;28;20376;-83
2022/06/06 05:52:45;;;;;;;5.53;3.03;;;;;;;;;;5063011;28;20241;-83
2022/06/06 05:55:22;;;;;;;4.93;2.63;;;;;;;;;;5060435;28;20289;-81
2022/06/06 05:57:59;;;;;;;5.83;2.80;;;;;;;;;;5063011;28;20314;-81
2022/06/06 06:00:34;;;;;;;6.33;3.07;;;;;;;;;;5063833;28;20363;-82
2022/06/06 06:03:16;;;;;;;4.93;2.80;;;;;;;;;;5064885;28;20209;-80
2022/06/06 06:05:58;;;;;;;6.10;2.70;;;;;;;;;;5062398;28;20293;-83
2022/06/06 06:08:31;;;;;;;4.77;2.90;;;;;;;;;;5059611;28;20285;-80
2022/06/06 06:11:05;;;;;;;5.10;2.80;;;;;;;;;;5060917;28;20254;-82
2022/06/06 06:13:42;;;;;;;4.80;2.20;;;;;;;;;;5059466;28;20209;-81
2022/06/06 06:16:11;;;;;;;4.93;3.00;;;;;;;;;;5061530;28;20646;-80
2022/06/06 06:18:42;;;;;;;6.07;3.00;;;;;;;;;;5062585;28;20260;-82
2022/06/06 06:21:10;;;;;;;5.23;2.70;;;;;;;;;;5059407;28;20220;-80
2022/06/06 06:23:39;;;;;;;5.07;3.17;;;;;;;;;;5060423;28;20230;-83
2022/06/06 06:26:07;;;;;;;8.43;2.87;;;;;;;;;;5060680;28;20640;-81
2022/06/06 06:28:36;;;;;;;4.50;2.80;;;;;;;;;;5059915;28;20234;-79
2022/06/06 06:31:12;;;;;;;5.13;2.50;;;;;;;;;;5061971;28;20246;-80
2022/06/06 06:33:49;;;;;;;6.30;2.67;;;;;;;;;;5062303;28;20271;-80
2022/06/06 06:36:34;;;;;;;4.80;2.90;;;;;;;;;;5057287;28;20205;-82
2022/06/06 06:39:13;;;;;;;5.90;2.67;;;;;;;;;;5061430;28;20309;-79
2022/06/06 06:41:45;;;;;;;5.17;2.90;;;;;;;;;;5062212;28;20205;-82
2022/06/06 06:44:16;;;;;;;5.47;2.90;;;;;;;;;;5059516;28;20289;-81
2022/06/06 06:46:44;;;;;;;6.73;2.83;;;;;;;;;;5060194;28;20210;-82
2022/06/06 06:49:16;;;;;;;4.10;2.57;;;;;;;;;;5056912;28;20676;-82
2022/06/06 06:51:47;;;;;;;5.47;3.10;;;;;;;;;;5060338;28;20289;-81
2022/06/06 06:54:25;;;;;;;6.07;2.60;;;;;;;;;;5061001;28;20202;-81
2022/06/06 06:56:58;;;;;;;4.47;2.67;;;;;;;;;;5061290;28;20194;-83
2022/06/06 06:59:30;;;;;;;4.53;2.50;;;;;;;;;;5060175;28;21030;-82
2022/06/06 07:10:33;;;;;;;4.17;2.17;;;;;;;;;;5057270;28;20249;-81
2022/06/06 07:13:11;;;;;;;4.20;2.30;;;;;;;;;;5061648;28;20206;-82
2022/06/06 07:15:42;;;;;;;6.07;1.97;;;;;;;;;;5059061;28;20207;-81
2022/06/06 07:18:12;;;;;;;8.00;2.20;;;;;;;;;;5060323;28;20586;-80
2022/06/06 07:20:42;;;;;;;4.40;1.80;;;;;;;;;;5060769;28;20290;-82
2022/06/06 07:23:11;;;;;;;2.67;1.60;;;;;;;;;;5061820;28;20219;-83
2022/06/06 07:25:39;;;;;;;6.30;1.93;;;;;;;;;;5060114;28;20695;-82
2022/06/06 07:28:07;;;;;;;2.37;1.33;;;;;;;;;;5060029;28;20272;-81
2022/06/06 07:30:38;;;;;;;2.30;1.67;;;;;;;;;;5061162;28;20251;-81
2022/06/06 07:33:11;;;;;;;3.13;1.70;;;;;;;;;;5063357;28;20275;-79
2022/06/06 07:35:40;;;;;;;2.80;1.73;;;;;;;;;;5060125;28;20207;-82
2022/06/06 07:38:13;;;;;;;3.40;1.37;;;;;;;;;;5058111;28;20219;-83
2022/06/06 07:40:47;;;;;;;3.57;1.67;;;;;;;;;;5058897;28;20257;-81
2022/06/06 07:43:25;;;;;;;2.80;1.33;;;;;;;;;;5059561;28;20206;-80
2022/06/06 07:45:55;;;;;;;2.63;1.57;;;;;;;;;;5060985;28;20673;-83
2022/06/06 07:48:30;;;;;;;2.03;1.40;;;;;;;;;;5063422;28;20553;-82
2022/06/06 07:51:02;;;;;;;2.87;1.70;;;;;;;;;;5059637;28;20231;-83
2022/06/06 07:53:35;;;;;;;2.23;1.40;;;;;;;;;;5059631;28;20236;-81
2022/06/06 07:56:06;;;;;;;2.30;1.23;;;;;;;;;;5059604;28;20289;-83
2022/06/06 07:58:38;;;;;;;3.30;1.30;;;;;;;;;;5061420;28;20252;-82
2022/06/06 08:01:09;;;;;;;2.40;1.30;;;;;;;;;;5060082;28;20275;-81
2022/06/06 08:03:44;;;;;;;1.67;1.20;;;;;;;;;;5078564;28;20221;-79
2022/06/06 08:06:20;;;;;;;2.77;1.50;;;;;;;;;;5082667;28;20214;-79
2022/06/06 08:09:04;;;;;;;2.23;1.20;;;;;;;;;;5066893;28;20205;-81
2022/06/06 08:11:37;;;;;;;1.63;1.23;;;;;;;;;;5061351;28;20214;-82
2022/06/06 08:14:08;;;;;;;2.43;1.33;;;;;;;;;;5064641;28;20678;-82
2022/06/06 08:16:41;;;;;;;3.90;1.53;;;;;;;;;;5066152;28;20256;-82
2022/06/06 08:19:22;;;;;;;2.70;1.60;;;;;;;;;;5067137;28;20275;-80
2022/06/06 08:21:50;;;;;;;6.07;1.47;;;;;;;;;;5069083;28;20651;-82
2022/06/06 08:24:23;;;;;;;3.10;1.70;;;;;;;;;;5063980;28;20315;-80
2022/06/06 08:26:52;;;;;;;2.67;1.63;;;;;;;;;;5065650;28;20280;-80
2022/06/06 08:29:19;;;;;;;2.93;1.80;;;;;;;;;;5071049;28;20203;-81
2022/06/06 08:31:47;;;;;;;3.97;1.83;;;;;;;;;;5064329;28;20206;-80
2022/06/06 08:34:14;;;;;;;4.70;1.40;;;;;;;;;;5070465;28;20207;-80
2022/06/06 08:37:01;;;;;;;1.60;1.30;;;;;;;;;;5060134;28;20643;-80
2022/06/06 08:39:36;;;;;;;3.67;1.50;;;;;;;;;;5060360;28;20307;-80
2022/06/06 08:42:13;;;;;;;2.20;1.73;;;;;;;;;;5061116;28;20208;-80
2022/06/06 08:44:51;;;;;;;5.47;1.60;;;;;;;;;;5061443;28;20202;-80
2022/06/06 08:47:23;;;;;;;3.07;1.83;;;;;;;;;;5062956;28;20229;-78
2022/06/06 08:52:57;;;;;;;3.90;2.03;;;;;;;;;;5061229;28;20271;-79
2022/06/06 08:55:40;;;;;;;1.80;1.47;;;;;;;;;;5060668;28;20206;-80
2022/06/06 08:58:19;;;;;;;7.23;2.17;;;;;;;;;;5062051;28;20277;-80
2022/06/06 09:00:50;;;;;;;2.97;1.80;;;;;;;;;;5062858;28;20331;-81
2022/06/06 09:03:32;;;;;;;2.57;1.63;;;;;;;;;;5064014;28;20690;-80
2022/06/06 09:06:14;;;;;;;2.27;1.60;;;;;;;;;;5066115;28;20283;-79
2022/06/06 09:09:11;;;;;;;2.63;1.43;;;;;;;;;;5060883;28;20916;-80
2022/06/06 09:11:57;;;;;;;3.73;1.60;;;;;;;;;;5083406;22;20613;-79
2022/06/06 09:14:39;;;;;;;2.27;1.60;;;;;;;;;;5064856;28;20207;-79
2022/06/06 09:17:13;;;;;;;4.07;1.60;;;;;;;;;;5045295;28;20206;-80
2022/06/06 09:19:52;;;;;;;2.27;1.60;;;;;;;;;;5066573;28;20622;-80
2022/06/06 09:22:43;;;;;;;2.47;1.80;;;;;;;;;;5064636;28;20232;-80
2022/06/06 09:25:17;;;;;;;5.57;1.73;;;;;;;;;;5064033;28;20206;-80
2022/06/06 09:28:11;;;;;;;3.20;1.53;;;;;;;;;;5066437;28;20583;-81
2022/06/06 09:30:58;;;;;;;2.53;1.47;;;;;;;;;;5069339;28;20252;-81
2022/06/06 09:33:44;;;;;;;3.70;1.50;;;;;;;;;;5068498;28;20212;-80
2022/06/06 09:36:20;;;;;;;4.57;1.63;;;;;;;;;;5066862;28;20210;-81
2022/06/06 09:38:55;;;;;;;2.90;1.40;;;;;;;;;;5069207;28;20229;-80
2022/06/06 09:41:30;;;;;;;4.30;1.30;;;;;;;;;;5071446;28;20283;-80
2022/06/06 09:44:03;;;;;;;2.27;1.20;;;;;;;;;;5067590;28;20227;-80
2022/06/06 09:46:41;;;;;;;3.63;1.40;;;;;;;;;;5066015;28;20202;-80
2022/06/06 09:49:26;;;;;;;2.23;1.40;;;;;;;;;;5064837;28;20283;-81
2022/06/06 09:52:09;;;;;;;1.67;1.30;;;;;;;;;;5066210;28;20607;-81
2022/06/06 10:00:41;;;;;;;2.00;1.30;;;;;;;;;;5063398;28;20284;-81
2022/06/06 10:03:17;;;;;;;2.60;1.30;;;;;;;;;;5069065;28;20257;-80
2022/06/06 10:05:59;;;;;;;4.93;1.20;;;;;;;;;;5068278;28;20213;-80
2022/06/06 10:08:55;;;;;;;1.90;0.90;;;;;;;;;;5019528;28;20210;-79
2022/06/06 10:11:49;;;;;;;1.90;1.13;;;;;;;;;;5067461;28;20318;-80
2022/06/06 10:14:22;;;;;;;2.03;0.93;;;;;;;;;;5063580;28;20306;-79
2022/06/06 10:16:56;;;;;;;1.63;1.20;;;;;;;;;;5067757;28;20249;-80
2022/06/06 10:19:34;;;;;;;2.13;1.17;;;;;;;;;;5064306;28;20286;-79
2022/06/06 10:22:12;;;;;;;1.20;0.70;;;;;;;;;;5069670;28;20253;-79
2022/06/06 10:25:00;;;;;;;4.50;1.17;;;;;;;;;;5067623;28;20224;-79
2022/06/06 10:27:32;;;;;;;3.93;1.00;;;;;;;;;;5062755;28;20207;-79
2022/06/06 10:30:14;;;;;;;3.63;1.07;;;;;;;;;;5065172;28;20199;-79
2022/06/06 10:32:59;;;;;;;1.60;1.10;;;;;;;;;;5062601;28;20202;-79
2022/06/06 10:35:30;;;;;;;2.03;1.10;;;;;;;;;;5064173;28;20263;-79
2022/06/06 10:37:59;;;;;;;1.87;1.10;;;;;;;;;;5068070;28;20210;-80
2022/06/06 10:40:36;;;;;;;1.77;1.07;;;;;;;;;;5067677;28;20381;-79
2022/06/06 10:43:18;;;;;;;2.10;1.07;;;;;;;;;;5066053;28;20289;-80
2022/06/06 10:45:48;;;;;;;3.33;1.30;;;;;;;;;;5066556;28;20295;-79
2022/06/06 10:48:31;;;;;;;2.27;1.10;;;;;;;;;;5065337;28;20198;-79
2022/06/06 10:54:11;;;;;;;2.33;1.10;;;;;;;;;;5063823;28;20540;-79
2022/06/06 10:56:48;;;;;;;2.17;0.77;;;;;;;;;;5061486;28;20216;-79
2022/06/06 10:59:30;;;;;;;0.90;0.70;;;;;;;;;;5060365;28;20225;-78
2022/06/06 11:02:13;;;;;;;2.57;0.93;;;;;;;;;;5060643;28;20327;-78
2022/06/06 11:04:59;;;;;;;1.90;0.90;;;;;;;;;;5061808;28;20198;-78
2022/06/06 11:07:40;;;;;;;3.07;0.90;;;;;;;;;;5063246;28;20738;-78
2022/06/06 11:10:23;;;;;;;1.50;1.00;;;;;;;;;;5063026;28;20201;-78
2022/06/06 11:13:17;;;;;;;2.37;0.70;;;;;;;;;;5028148;28;20564;-78
2022/06/06 11:15:51;;;;;;;7.90;1.00;;;;;;;;;;5024092;28;20309;-79
2022/06/06 11:18:40;;;;;;;3.57;0.70;;;;;;;;;;5063734;28;20202;-79
2022/06/06 11:21:17;;;;;;;1.47;0.80;;;;;;;;;;5063040;28;20217;-79
2022/06/06 11:23:48;;;;;;;1.40;0.83;;;;;;;;;;5062257;28;20194;-78
2022/06/06 11:26:33;;;;;;;3.10;0.77;;;;;;;;;;5062025;28;20206;-78
2022/06/06 11:29:09;;;;;;;2.07;0.70;;;;;;;;;;5035561;28;20205;-78
2022/06/06 11:31:43;;;;;;;1.50;0.80;;;;;;;;;;5060883;28;20230;-78
2022/06/06 11:34:40;;;;;;;1.23;0.57;;;;;;;;;;5062012;28;20216;-78
2022/06/06 11:37:31;;;;;;;1.83;0.83;;;;;;;;;;5062614;28;20609;-79
2022/06/06 11:40:11;;;;;;;2.30;0.60;;;;;;;;;;5064445;28;20744;-79
2022/06/06 11:42:54;;;;;;;2.27;0.70;;;;;;;;;;5075873;28;20567;-80
2022/06/06 11:45:29;;;;;;;1.53;0.70;;;;;;;;;;5077650;28;20232;-79
2022/06/06 11:48:05;;;;;;;1.17;0.80;;;;;;;;;;5072472;28;20226;-79
2022/06/06 11:50:56;;;;;;;2.53;0.70;;;;;;;;;;5072510;28;20225;-80
2022/06/06 11:53:50;;;;;;;1.53;0.90;;;;;;;;;;5052283;28;20229;-79
2022/06/06 11:56:26;;;;;;;1.47;0.70;;;;;;;;;;5074643;28;20231;-79
2022/06/06 11:59:09;;;;;;;3.53;0.80;;;;;;;;;;5069638;28;20285;-78
2022/06/06 12:02:05;;;;;;;1.83;0.70;;;;;;;;;;5069147;28;20218;-79
2022/06/06 12:04:50;;;;;;;1.43;0.83;;;;;;;;;;5067243;28;20207;-79
2022/06/06 12:07:36;;;;;;;2.37;1.00;;;;;;;;;;5067308;28;20202;-79
2022/06/06 12:10:05;;;;;;;1.87;0.90;;;;;;;;;;5069867;28;20205;-80
2022/06/06 12:12:52;;;;;;;2.80;1.00;;;;;;;;;;5068884;28;20210;-79
2022/06/06 12:15:40;;;;;;;3.33;0.77;;;;;;;;;;5064736;28;20691;-78
2022/06/06 12:18:20;;;;;;;2.03;0.90;;;;;;;;;;5067601;28;20769;-79
2022/06/06 12:20:59;;;;;;;2.97;1.00;;;;;;;;;;5068495;28;20225;-78
2022/06/06 12:23:35;;;;;;;2.70;0.80;;;;;;;;;;5071373;28;20705;-79
2022/06/06 12:26:16;;;;;;;3.97;0.90;;;;;;;;;;5066687;28;22013;-80
2022/06/06 12:28:59;;;;;;;2.00;1.10;;;;;;;;;;5071105;28;20592;-78
2022/06/06 12:31:51;;;;;;;7.10;1.20;;;;;;;;;;5068092;28;20319;-79
2022/06/06 12:34:20;;;;;;;2.20;0.90;;;;;;;;;;4996204;28;20251;-80
2022/06/06 12:36:52;;;;;;;1.70;0.90;;;;;;;;;;5069639;28;20755;-79
2022/06/06 12:39:26;;;;;;;3.13;0.80;;;;;;;;;;5066349;28;20904;-79
2022/06/06 12:42:00;;;;;;;2.33;1.23;;;;;;;;;;5064649;28;20236;-79
2022/06/06 12:44:37;;;;;;;2.70;1.07;;;;;;;;;;5065034;28;20299;-79
2022/06/06 12:47:15;;;;;;;4.40;1.30;;;;;;;;;;5067138;28;20198;-79
2022/06/06 12:49:48;;;;;;;5.00;0.90;;;;;;;;;;5068182;28;20327;-78
2022/06/06 12:52:25;;;;;;;3.90;0.90;;;;;;;;;;5071747;28;20657;-80
2022/06/06 12:57:55;;;;;;;2.60;0.83;;;;;;;;;;5066158;28;20653;-80
2022/06/06 13:01:37;;;;;;;0.90;0.80;;;;;;;;;;5068649;28;20225;-78
2022/06/06 13:03:16;;;;;;;2.50;1.10;;;;;;;;;;5072745;28;20202;-79
2022/06/06 13:05:48;;;;;;;1.17;0.80;;;;;;;;;;5064542;28;20318;-79
2022/06/06 13:08:33;;;;;;;1.80;0.80;;;;;;;;;;5068403;28;20906;-79
2022/06/06 13:11:22;;;;;;;1.63;1.00;;;;;;;;;;5064580;28;20332;-79
2022/06/06 13:13:55;;;;;;;3.13;1.10;;;;;;;;;;5065196;28;20202;-79
2022/06/06 13:16:32;;;;;;;1.00;0.73;;;;;;;;;;5063933;28;20577;-79
2022/06/06 13:19:15;;;;;;;3.03;1.00;;;;;;;;;;5069362;28;20202;-79
2022/06/06 13:21:46;;;;;;;3.43;0.83;;;;;;;;;;5066255;28;20234;-80
2022/06/06 13:24:42;;;;;;;2.50;0.90;;;;;;;;;;5068975;28;20333;-79
2022/06/06 13:27:18;;;;;;;2.50;0.90;;;;;;;;;;5066553;28;20206;-79
2022/06/06 13:29:46;;;;;;;2.57;0.83;;;;;;;;;;5071088;28;20257;-79
2022/06/06 13:32:23;;;;;;;1.67;0.97;;;;;;;;;;5060678;28;20237;-79
2022/06/06 13:34:56;;;;;;;4.53;1.10;;;;;;;;;;5058844;28;20217;-79
2022/06/06 13:37:30;;;;;;;2.10;0.90;;;;;;;;;;5062803;28;20596;-79
2022/06/06 13:40:08;;;;;;;1.60;1.00;;;;;;;;;;5059963;28;20207;-80
2022/06/06 13:42:51;;;;;;;3.03;0.97;;;;;;;;;;5061301;28;20655;-79
2022/06/06 13:45:21;;;;;;;1.47;0.97;;;;;;;;;;5068506;28;20737;-80
2022/06/06 13:48:00;;;;;;;3.43;1.00;;;;;;;;;;5068617;28;20212;-79
2022/06/06 13:50:31;;;;;;;1.73;1.00;;;;;;;;;;5062596;28;20222;-80
2022/06/06 13:53:05;;;;;;;2.23;0.90;;;;;;;;;;5060563;28;20682;-80
2022/06/06 13:55:33;;;;;;;5.33;1.07;;;;;;;;;;5066442;28;20249;-80
2022/06/06 13:58:06;;;;;;;1.63;0.90;;;;;;;;;;5067079;28;20571;-80
2022/06/06 14:00:40;;;;;;;1.20;0.90;;;;;;;;;;5063439;28;20229;-80
2022/06/06 14:03:18;;;;;;;1.33;0.80;;;;;;;;;;5062533;28;20589;-80
2022/06/06 14:05:59;;;;;;;2.00;0.80;;;;;;;;;;5064585;28;20286;-80
2022/06/06 14:08:26;;;;;;;2.63;0.93;;;;;;;;;;5067410;28;20586;-80
2022/06/06 14:11:01;;;;;;;1.63;0.90;;;;;;;;;;5064987;28;20248;-80
2022/06/06 14:13:34;;;;;;;1.43;0.80;;;;;;;;;;5069423;28;20224;-80
2022/06/06 14:16:02;;;;;;;1.37;0.90;;;;;;;;;;5063856;28;20257;-80
2022/06/06 14:18:32;;;;;;;1.93;0.70;;;;;;;;;;5065713;28;20202;-79
2022/06/06 14:21:03;;;;;;;1.50;0.87;;;;;;;;;;5066040;28;20713;-80
2022/06/06 14:23:30;;;;;;;1.77;0.90;;;;;;;;;;5062576;28;20249;-80
2022/06/06 14:25:59;;;;;;;1.53;0.70;;;;;;;;;;5060833;28;20587;-81
2022/06/06 14:28:28;;;;;;;2.97;1.00;;;;;;;;;;5064342;28;20234;-80
2022/06/06 14:30:55;;;;;;;2.03;1.00;;;;;;;;;;5060091;28;20226;-79
2022/06/06 14:33:24;;;;;;;1.27;0.90;;;;;;;;;;5065941;28;20285;-80
2022/06/06 14:35:53;;;;;;;3.17;0.90;;;;;;;;;;5060579;28;20234;-79
2022/06/06 14:38:22;;;;;;;4.03;1.10;;;;;;;;;;5062119;28;20207;-80
2022/06/06 14:40:51;;;;;;;1.40;0.60;;;;;;;;;;5062126;28;20495;-79
2022/06/06 14:43:18;;;;;;;2.07;0.90;;;;;;;;;;5065850;28;20216;-79
2022/06/06 14:45:47;;;;;;;1.13;0.70;;;;;;;;;;5065981;28;20211;-79
2022/06/06 14:48:18;;;;;;;2.83;0.90;;;;;;;;;;5064102;28;20209;-80
2022/06/06 14:50:54;;;;;;;1.83;0.90;;;;;;;;;;5062773;28;20227;-80
2022/06/06 14:53:24;;;;;;;1.43;0.70;;;;;;;;;;5064203;28;20210;-79
2022/06/06 14:55:53;;;;;;;0.77;0.60;;;;;;;;;;5067919;28;20297;-79
2022/06/06 14:58:23;;;;;;;1.20;0.60;;;;;;;;;;5069045;28;20962;-79
2022/06/06 15:00:51;;;;;;;1.30;0.90;;;;;;;;;;5072750;28;20684;-78
2022/06/06 15:03:18;;;;;;;2.77;0.90;;;;;;;;;;5076450;28;20206;-79
2022/06/06 15:05:48;;;;;;;1.30;0.80;;;;;;;;;;5073173;28;20194;-79
2022/06/06 15:08:18;;;;;;;2.97;0.90;;;;;;;;;;5073154;28;20312;-80
2022/06/06 15:10:48;;;;;;;2.23;0.90;;;;;;;;;;5081598;22;20286;-83
2022/06/06 15:13:17;;;;;;;3.77;0.80;;;;;;;;;;5068310;28;20241;-83
2022/06/06 15:15:44;;;;;;;1.77;0.90;;;;;;;;;;5068710;28;20694;-83
2022/06/06 15:18:16;;;;;;;1.00;0.80;;;;;;;;;;5073895;28;20206;-83
2022/06/06 15:20:52;;;;;;;1.67;1.03;;;;;;;;;;5068715;28;20222;-83
2022/06/06 15:23:22;;;;;;;2.47;1.00;;;;;;;;;;5059377;28;20201;-81
2022/06/06 15:25:53;;;;;;;2.30;1.23;;;;;;;;;;5050087;28;20198;-84
2022/06/06 15:28:25;;;;;;;2.00;1.13;;;;;;;;;;5052582;28;20270;-83
2022/06/06 15:30:55;;;;;;;1.60;0.80;;;;;;;;;;5054369;28;20310;-83
2022/06/06 15:33:26;;;;;;;3.13;1.27;;;;;;;;;;5055890;28;20210;-82
2022/06/06 15:35:57;;;;;;;5.10;1.13;;;;;;;;;;5052563;28;20208;-81
2022/06/06 15:38:37;;;;;;;4.17;1.10;;;;;;;;;;5059658;28;20253;-82
2022/06/06 15:41:08;;;;;;;2.97;1.00;;;;;;;;;;5052793;28;20226;-83
2022/06/06 15:43:41;;;;;;;2.50;1.00;;;;;;;;;;5058158;28;20207;-83
2022/06/06 15:46:15;;;;;;;1.87;0.90;;;;;;;;;;5057970;28;20213;-83
2022/06/06 15:48:44;;;;;;;3.57;1.13;;;;;;;;;;5054458;28;20205;-82
2022/06/06 15:51:17;;;;;;;1.70;1.20;;;;;;;;;;5059319;28;20218;-83
2022/06/06 15:53:59;;;;;;;1.03;0.90;;;;;;;;;;5058837;28;20199;-83
2022/06/06 15:56:34;;;;;;;2.73;1.03;;;;;;;;;;5055755;28;20203;-83